createdAt,value
2023-02-18T00:02:01.636Z,100653.56
2023-02-18T00:04:54.315Z,100637.22
2023-02-18T00:08:10.763Z,100646.69
2023-02-18T00:11:19.118Z,100637.13
2023-02-18T00:14:29.484Z,100627.56
2023-02-18T00:26:26.478Z,100648.88
2023-02-18T00:29:33.280Z,100652.28
2023-02-18T00:32:29.289Z,100650.44
2023-02-18T00:35:34.604Z,100649.38
2023-02-18T00:38:22.937Z,100663.91
2023-02-18T00:44:19.825Z,100662.53
2023-02-18T00:47:08.002Z,100671.06
2023-02-18T00:53:01.562Z,100675.84
2023-02-18T00:56:18.426Z,100686.03
2023-02-18T00:59:35.517Z,100689.31
2023-02-18T01:06:20.637Z,100678.66
2023-02-18T01:13:00.687Z,100679.44
2023-02-18T01:16:11.890Z,100676.00
2023-02-18T01:19:11.176Z,100659.56
2023-02-18T01:22:09.473Z,100681.16
2023-02-18T01:25:13.140Z,100679.38
2023-02-18T01:28:01.708Z,100671.59
2023-02-18T01:30:39.414Z,100684.56
2023-02-18T01:44:57.352Z,100677.72
2023-02-18T01:47:44.634Z,100670.03
2023-02-18T01:58:20.965Z,100676.78
2023-02-18T02:01:17.715Z,100667.28
2023-02-18T02:04:41.837Z,100667.25
2023-02-18T02:07:46.689Z,100675.06
2023-02-18T02:11:23.972Z,100664.75
2023-02-18T02:19:24.410Z,100671.75
2023-02-18T02:22:23.477Z,100699.34
2023-02-18T02:25:59.464Z,100691.47
2023-02-18T02:29:31.523Z,100696.59
2023-02-18T02:40:42.767Z,100690.25
2023-02-18T02:44:13.092Z,100679.00
2023-02-18T02:51:38.741Z,100679.56
2023-02-18T02:54:49.490Z,100682.00
2023-02-18T02:58:10.535Z,100681.09
2023-02-18T03:01:50.104Z,100694.84
2023-02-18T03:04:57.905Z,100698.28
2023-02-18T03:07:52.836Z,100696.56
2023-02-18T03:10:50.686Z,100677.50
2023-02-18T03:13:54.345Z,100686.09
2023-02-18T03:16:30.005Z,100696.38
2023-02-18T03:19:23.632Z,100683.31
2023-02-18T03:22:10.250Z,100675.50
2023-02-18T03:24:42.096Z,100701.41
2023-02-18T03:27:35.071Z,100686.75
2023-02-18T03:30:28.239Z,100692.84
2023-02-18T03:33:04.028Z,100699.06
2023-02-18T03:35:31.039Z,100694.03
2023-02-18T03:38:21.339Z,100684.03
2023-02-18T03:40:48.272Z,100685.06
2023-02-18T03:43:15.403Z,100699.91
2023-02-18T03:45:42.553Z,100681.09
2023-02-18T03:48:09.799Z,100681.16
2023-02-18T03:50:36.716Z,100681.09
2023-02-18T03:53:03.590Z,100680.16
2023-02-18T03:55:30.702Z,100677.47
2023-02-18T03:57:57.838Z,100682.59
2023-02-18T04:00:25.043Z,100677.34
2023-02-18T04:02:51.952Z,100683.28
2023-02-18T04:05:19.003Z,100683.25
2023-02-18T04:07:45.934Z,100689.97
2023-02-18T04:10:13.053Z,100686.47
2023-02-18T04:12:40.097Z,100677.75
2023-02-18T04:15:07.498Z,100678.53
2023-02-18T04:17:35.025Z,100681.91
2023-02-18T04:20:02.122Z,100691.28
2023-02-18T04:22:29.035Z,100673.97
2023-02-18T04:24:55.913Z,100690.34
2023-02-18T04:27:22.853Z,100696.31
2023-02-18T04:29:50.720Z,100694.50
2023-02-18T04:32:17.677Z,100688.44
2023-02-18T04:34:44.655Z,100680.59
2023-02-18T04:37:11.598Z,100701.28
2023-02-18T04:39:38.568Z,100700.41
2023-02-18T04:42:08.933Z,100702.03
2023-02-18T04:44:37.708Z,100708.00
2023-02-18T04:47:06.128Z,100699.28
2023-02-18T04:49:33.639Z,100703.63
2023-02-18T04:52:00.761Z,100709.66
2023-02-18T04:54:27.732Z,100707.06
2023-02-18T04:56:54.686Z,100712.25
2023-02-18T04:59:21.598Z,100707.88
2023-02-18T05:01:48.574Z,100710.47
2023-02-18T05:04:17.448Z,100708.78
2023-02-18T05:06:44.791Z,100713.94
2023-02-18T05:09:12.516Z,100717.47
2023-02-18T05:11:39.819Z,100704.53
2023-02-18T05:14:06.930Z,100717.53
2023-02-18T05:16:33.888Z,100697.75
2023-02-18T05:19:00.809Z,100711.75
2023-02-18T05:21:27.670Z,100705.94
2023-02-18T05:23:54.609Z,100696.63
2023-02-18T05:26:21.525Z,100702.94
2023-02-18T05:28:48.596Z,100701.50
2023-02-18T05:31:15.619Z,100697.38
2023-02-18T05:33:42.659Z,100699.34
2023-02-18T05:36:09.797Z,100697.78
2023-02-18T05:38:36.859Z,100695.31
2023-02-18T05:41:03.919Z,100686.75
2023-02-18T05:43:30.952Z,100691.22
2023-02-18T05:45:57.847Z,100690.44
2023-02-18T05:48:24.721Z,100678.47
2023-02-18T05:50:54.298Z,100684.59
2023-02-18T05:53:21.830Z,100679.50
2023-02-18T05:55:48.738Z,100682.19
2023-02-18T05:58:17.057Z,100684.03
2023-02-18T06:00:44.080Z,100680.59
2023-02-18T06:03:11.076Z,100687.59
2023-02-18T06:05:37.994Z,100692.88
2023-02-18T06:08:05.168Z,100690.34
2023-02-18T06:10:32.112Z,100696.50
2023-02-18T06:13:00.157Z,100693.97
2023-02-18T06:15:27.038Z,100696.63
2023-02-18T06:17:54.488Z,100692.38
2023-02-18T06:20:21.360Z,100682.06
2023-02-18T06:22:48.262Z,100678.63
2023-02-18T06:25:15.221Z,100692.53
2023-02-18T06:27:42.146Z,100682.25
2023-02-18T06:30:09.834Z,100686.59
2023-02-18T06:32:36.718Z,100687.53
2023-02-18T06:35:03.780Z,100692.75
2023-02-18T06:37:30.691Z,100683.31
2023-02-18T06:39:57.643Z,100703.22
2023-02-18T06:42:24.635Z,100694.66
2023-02-18T06:44:51.525Z,100693.00
2023-02-18T06:47:18.463Z,100689.63
2023-02-18T06:49:45.341Z,100679.34
2023-02-18T06:52:12.228Z,100681.09
2023-02-18T06:54:39.243Z,100675.09
2023-02-18T06:57:06.120Z,100675.19
2023-02-18T06:59:32.994Z,100678.66
2023-02-18T07:01:59.919Z,100682.22
2023-02-18T07:04:26.786Z,100681.47
2023-02-18T07:06:53.713Z,100681.53
2023-02-18T07:09:20.618Z,100676.38
2023-02-18T07:11:47.651Z,100665.16
2023-02-18T07:14:14.626Z,100662.59
2023-02-18T07:16:41.825Z,100664.31
2023-02-18T07:19:08.769Z,100670.44
2023-02-18T07:21:35.719Z,100673.03
2023-02-18T07:24:02.798Z,100671.34
2023-02-18T07:26:29.700Z,100660.13
2023-02-18T07:28:56.621Z,100657.59
2023-02-18T07:31:23.559Z,100662.88
2023-02-18T07:33:50.539Z,100657.72
2023-02-18T07:36:17.404Z,100656.13
2023-02-18T07:38:44.278Z,100660.59
2023-02-18T07:41:20.487Z,100645.91
2023-02-18T07:43:47.907Z,100652.03
2023-02-18T07:46:15.459Z,100634.72
2023-02-18T07:48:42.923Z,100629.56
2023-02-18T07:51:12.185Z,100637.50
2023-02-18T07:53:40.035Z,100628.91
2023-02-18T07:56:07.665Z,100631.56
2023-02-18T07:58:38.193Z,100634.31
2023-02-18T08:01:07.972Z,100630.94
2023-02-18T08:03:35.145Z,100634.38
2023-02-18T08:06:04.190Z,100630.81
2023-02-18T08:08:34.572Z,100630.75
2023-02-18T08:11:13.296Z,100611.69
2023-02-18T08:13:47.066Z,100613.38
2023-02-18T08:16:14.836Z,100609.88
2023-02-18T08:18:41.871Z,100607.22
2023-02-18T08:21:08.792Z,100604.56
2023-02-18T08:23:35.690Z,100590.63
2023-02-18T08:26:02.605Z,100587.03
2023-02-18T08:28:29.636Z,100595.69
2023-02-18T08:30:56.611Z,100594.81
2023-02-18T08:33:24.230Z,100585.31
2023-02-18T08:35:54.064Z,100583.59
2023-02-18T08:38:23.529Z,100586.16
2023-02-18T08:40:50.679Z,100576.56
2023-02-18T08:43:18.354Z,100580.09
2023-02-18T08:45:45.501Z,100574.09
2023-02-18T08:48:19.663Z,100582.00
2023-02-18T08:50:48.479Z,100574.28
2023-02-18T08:53:16.488Z,100575.97
2023-02-18T08:55:43.868Z,100583.75
2023-02-18T08:58:11.702Z,100576.81
2023-02-18T09:00:40.233Z,100571.53
2023-02-18T09:03:07.828Z,100564.50
2023-02-18T09:05:34.751Z,100564.47
2023-02-18T09:08:02.222Z,100556.66
2023-02-18T09:10:29.201Z,100543.63
2023-02-18T09:12:56.144Z,100546.22
2023-02-18T09:15:23.261Z,100535.81
2023-02-18T09:17:50.173Z,100529.78
2023-02-18T09:20:17.224Z,100521.19
2023-02-18T09:22:44.128Z,100524.69
2023-02-18T09:25:11.127Z,100517.88
2023-02-18T09:27:38.115Z,100516.22
2023-02-18T09:30:06.602Z,100510.22
2023-02-18T09:32:34.981Z,100517.16
2023-02-18T09:35:05.483Z,100512.81
2023-02-18T09:37:32.440Z,100497.97
2023-02-18T09:40:00.047Z,100505.66
2023-02-18T09:42:34.304Z,100485.75
2023-02-18T09:45:06.687Z,100477.94
2023-02-18T09:47:38.971Z,100474.44
2023-02-18T09:50:29.345Z,100465.66
2023-02-18T09:53:00.394Z,100463.84
2023-02-18T09:55:39.597Z,100448.25
2023-02-18T09:58:15.843Z,100428.34
2023-02-18T10:00:48.513Z,100433.53
2023-02-18T10:03:24.606Z,100433.53
2023-02-18T10:06:24.207Z,100430.97
2023-02-18T10:08:54.065Z,100430.16
2023-02-18T10:11:31.727Z,100418.84
2023-02-18T10:14:01.082Z,100416.97
2023-02-18T10:16:28.703Z,100425.66
2023-02-18T10:19:05.237Z,100417.78
2023-02-18T10:21:36.163Z,100408.22
2023-02-18T10:24:28.840Z,100390.88
2023-02-18T10:26:56.831Z,100384.88
2023-02-18T10:29:25.202Z,100373.66
2023-02-18T10:32:13.081Z,100365.03
2023-02-18T10:35:12.024Z,100356.34
2023-02-18T10:38:24.443Z,100345.25
2023-02-18T10:41:16.495Z,100326.31
2023-02-18T10:43:54.667Z,100317.75
2023-02-18T10:46:58.702Z,100311.81
2023-02-18T10:49:56.881Z,100299.69
2023-02-18T10:52:28.327Z,100295.31
2023-02-18T10:55:00.839Z,100293.53
2023-02-18T10:57:28.305Z,100277.06
2023-02-18T11:00:15.336Z,100274.47
2023-02-18T11:02:43.685Z,100265.88
2023-02-18T11:05:29.357Z,100252.91
2023-02-18T11:07:59.893Z,100239.06
2023-02-18T11:10:32.996Z,100234.78
2023-02-18T11:13:09.605Z,100221.94
2023-02-18T11:15:37.385Z,100204.59
2023-02-18T11:18:38.702Z,100195.94
2023-02-18T11:21:13.514Z,100185.56
2023-02-18T11:23:52.110Z,100189.88
2023-02-18T11:26:30.790Z,100188.09
2023-02-18T11:29:23.139Z,100175.97
2023-02-18T11:31:53.871Z,100175.88
2023-02-18T11:34:24.465Z,100159.34
2023-02-18T11:36:52.422Z,100154.13
2023-02-18T11:39:27.845Z,100152.31
2023-02-18T11:42:17.554Z,100135.75
2023-02-18T11:45:05.776Z,100130.47
2023-02-18T11:47:37.555Z,100118.31
2023-02-18T11:50:10.631Z,100118.25
2023-02-18T11:52:47.505Z,100109.66
2023-02-18T11:55:20.800Z,100094.16
2023-02-18T11:58:06.409Z,100095.13
2023-02-18T12:00:45.203Z,100089.09
2023-02-18T12:03:57.279Z,100074.47
2023-02-18T12:06:32.275Z,100061.59
2023-02-18T12:09:29.050Z,100061.66
2023-02-18T12:12:01.799Z,100054.00
2023-02-18T12:14:28.915Z,100054.09
2023-02-18T12:17:23.467Z,100041.16
2023-02-18T12:20:46.718Z,100040.34
2023-02-18T12:23:52.887Z,100041.25
2023-02-18T12:26:29.428Z,100030.91
2023-02-18T12:29:45.871Z,100026.63
2023-02-18T12:32:41.545Z,100024.97
2023-02-18T12:35:41.572Z,100019.84
2023-02-18T12:38:29.201Z,100022.53
2023-02-18T12:41:37.087Z,100013.06
2023-02-18T12:44:22.986Z,99998.34
2023-02-18T12:46:55.407Z,99990.63
2023-02-18T12:49:31.491Z,99983.72
2023-02-18T12:52:32.212Z,99996.84
2023-02-18T12:55:36.975Z,99985.66
2023-02-18T12:58:28.097Z,99966.59
2023-02-18T13:01:03.682Z,99967.47
2023-02-18T13:04:18.985Z,99967.50
2023-02-18T13:07:34.103Z,99964.09
2023-02-18T13:10:38.079Z,99957.16
2023-02-18T13:13:22.799Z,99951.06
2023-02-18T13:16:05.037Z,99941.50
2023-02-18T13:18:34.512Z,99951.09
2023-02-18T13:21:06.441Z,99944.09
2023-02-18T13:23:57.267Z,99941.50
2023-02-18T13:26:25.175Z,99940.63
2023-02-18T13:29:29.544Z,99927.56
2023-02-18T13:32:27.135Z,99927.56
2023-02-18T13:35:25.723Z,99938.00
2023-02-18T13:38:24.303Z,99950.22
2023-02-18T13:40:51.579Z,99945.84
2023-02-18T13:43:33.425Z,99934.56
2023-02-18T13:46:09.341Z,99941.50
2023-02-18T13:48:55.190Z,99931.94
2023-02-18T13:51:45.126Z,99941.50
2023-02-18T13:54:17.636Z,99935.41
2023-02-18T13:57:03.864Z,99933.66
2023-02-18T13:59:44.218Z,99941.50
2023-02-18T14:02:20.595Z,99949.31
2023-02-18T14:04:56.165Z,99930.22
2023-02-18T14:07:41.616Z,99931.06
2023-02-18T14:10:33.541Z,99920.63
2023-02-18T14:13:02.436Z,99916.28
2023-02-18T14:15:29.312Z,99928.47
2023-02-18T14:18:10.732Z,99924.09
2023-02-18T14:20:40.328Z,99922.38
2023-02-18T14:23:19.507Z,99920.63
2023-02-18T14:26:19.327Z,99942.34
2023-02-18T14:28:50.706Z,99937.13
2023-02-18T14:31:46.270Z,99934.53
2023-02-18T14:34:40.862Z,99939.75
2023-02-18T14:37:19.520Z,99939.75
2023-02-18T14:40:10.379Z,99935.41
2023-02-18T14:43:02.579Z,99920.63
2023-02-18T14:45:53.712Z,99925.84
2023-02-18T14:48:52.617Z,99931.91
2023-02-18T14:51:24.045Z,99917.16
2023-02-18T14:53:51.520Z,99939.78
2023-02-18T14:56:21.677Z,99942.38
2023-02-18T14:58:59.774Z,99942.38
2023-02-18T15:01:33.913Z,99942.38
2023-02-18T15:04:02.802Z,99957.16
2023-02-18T15:06:38.196Z,99955.41
2023-02-18T15:09:22.538Z,99950.19
2023-02-18T15:12:02.292Z,99954.56
2023-02-18T15:14:36.433Z,99954.56
2023-02-18T15:17:05.055Z,99948.44
2023-02-18T15:19:47.773Z,99968.47
2023-02-18T15:22:19.052Z,99969.34
2023-02-18T15:24:46.317Z,99967.59
2023-02-18T15:27:35.158Z,99957.16
2023-02-18T15:30:27.056Z,99974.56
2023-02-18T15:33:03.160Z,99984.13
2023-02-18T15:35:33.349Z,99989.34
2023-02-18T15:38:01.279Z,99991.09
2023-02-18T15:40:32.598Z,99991.09
2023-02-18T15:43:06.213Z,100003.28
2023-02-18T15:45:42.369Z,100014.56
2023-02-18T15:48:33.716Z,100039.81
2023-02-18T15:51:17.477Z,100038.06
2023-02-18T15:53:49.384Z,100042.41
2023-02-18T15:56:39.607Z,100041.50
2023-02-18T15:59:32.703Z,100044.97
2023-02-18T16:02:08.611Z,100045.00
2023-02-18T16:04:40.698Z,100043.25
2023-02-18T16:07:49.263Z,100059.75
2023-02-18T16:10:40.824Z,100064.09
2023-02-18T16:13:07.692Z,100069.28
2023-02-18T16:15:42.664Z,100092.78
2023-02-18T16:18:40.028Z,100081.41
2023-02-18T16:21:39.810Z,100093.56
2023-02-18T16:24:40.979Z,100110.91
2023-02-18T16:27:17.099Z,100115.25
2023-02-18T16:29:44.527Z,100094.38
2023-02-18T16:32:11.643Z,100116.09
2023-02-18T16:34:38.724Z,100111.72
2023-02-18T16:37:24.655Z,100116.97
2023-02-18T16:39:54.939Z,100125.63
2023-02-18T16:42:22.270Z,100130.75
2023-02-18T16:44:50.565Z,100139.41
2023-02-18T16:47:19.659Z,100138.50
2023-02-18T16:49:50.032Z,100134.13
2023-02-18T16:52:19.342Z,100138.41
2023-02-18T16:54:48.217Z,100171.38
2023-02-18T16:57:15.114Z,100171.38
2023-02-18T16:59:42.038Z,100163.56
2023-02-18T17:02:19.992Z,100192.19
2023-02-18T17:04:46.998Z,100206.06
2023-02-18T17:07:14.030Z,100221.59
2023-02-18T17:09:40.951Z,100218.81
2023-02-18T17:12:09.072Z,100238.66
2023-02-18T17:14:36.005Z,100237.63
2023-02-18T17:17:09.124Z,100250.50
2023-02-18T17:19:36.018Z,100261.69
2023-02-18T17:22:02.901Z,100274.63
2023-02-18T17:24:29.788Z,100274.56
2023-02-18T17:26:56.813Z,100277.06
2023-02-18T17:29:23.805Z,100297.81
2023-02-18T17:31:56.763Z,100308.19
2023-02-18T17:34:31.099Z,100309.84
2023-02-18T17:36:58.330Z,100325.41
2023-02-18T17:39:25.343Z,100341.75
2023-02-18T17:41:52.393Z,100343.44
2023-02-18T17:44:24.619Z,100358.97
2023-02-18T17:46:52.345Z,100347.66
2023-02-18T17:49:19.378Z,100352.00
2023-02-18T17:51:46.406Z,100353.72
2023-02-18T17:54:19.232Z,100355.44
2023-02-18T17:56:46.952Z,100352.00
2023-02-18T17:59:14.035Z,100357.16
2023-02-18T18:01:42.399Z,100357.16
2023-02-18T18:04:18.696Z,100367.53
2023-02-18T18:06:46.865Z,100370.97
2023-02-18T18:09:14.070Z,100380.53
2023-02-18T18:11:41.105Z,100374.47
2023-02-18T18:14:10.268Z,100390.94
2023-02-18T18:16:37.173Z,100384.88
2023-02-18T18:19:04.200Z,100397.81
2023-02-18T18:21:35.252Z,100400.34
2023-02-18T18:24:02.738Z,100413.34
2023-02-18T18:26:30.148Z,100413.31
2023-02-18T18:28:57.241Z,100423.75
2023-02-18T18:31:24.527Z,100422.03
2023-02-18T18:33:53.280Z,100420.28
2023-02-18T18:36:21.817Z,100422.88
2023-02-18T18:38:48.809Z,100417.63
2023-02-18T18:41:19.668Z,100421.94
2023-02-18T18:43:47.310Z,100440.06
2023-02-18T18:46:14.264Z,100443.50
2023-02-18T18:48:41.363Z,100456.44
2023-02-18T18:51:19.642Z,100440.78
2023-02-18T18:53:47.265Z,100452.84
2023-02-18T18:56:14.497Z,100468.41
2023-02-18T18:58:41.541Z,100466.66
2023-02-18T19:01:18.926Z,100467.53
2023-02-18T19:03:47.236Z,100471.84
2023-02-18T19:06:16.015Z,100484.84
2023-02-18T19:08:43.284Z,100480.50
2023-02-18T19:11:12.797Z,100489.16
2023-02-18T19:13:40.264Z,100478.75
2023-02-18T19:16:15.214Z,100479.63
2023-02-18T19:18:42.061Z,100486.56
2023-02-18T19:21:09.349Z,100489.19
2023-02-18T19:23:36.522Z,100490.94
2023-02-18T19:26:03.962Z,100495.25
2023-02-18T19:28:31.506Z,100495.22
2023-02-18T19:30:58.439Z,100501.28
2023-02-18T19:33:25.416Z,100495.13
2023-02-18T19:35:52.387Z,100501.16
2023-02-18T19:38:20.674Z,100506.38
2023-02-18T19:40:48.051Z,100515.06
2023-02-18T19:43:15.164Z,100511.59
2023-02-18T19:45:47.085Z,100518.44
2023-02-18T19:48:15.400Z,100513.19
2023-02-18T19:50:43.646Z,100526.13
2023-02-18T19:53:11.296Z,100522.66
2023-02-18T19:55:38.827Z,100523.53
2023-02-18T19:58:06.381Z,100529.63
2023-02-18T20:00:33.500Z,100523.53
2023-02-18T20:03:00.486Z,100530.41
2023-02-18T20:05:27.472Z,100524.31
2023-02-18T20:07:54.505Z,100521.56
2023-02-18T20:10:22.067Z,100537.09
2023-02-18T20:12:54.059Z,100525.78
2023-02-18T20:15:22.090Z,100537.84
2023-02-18T20:17:49.544Z,100535.25
2023-02-18T20:20:18.014Z,100539.59
2023-02-18T20:22:45.219Z,100536.16
2023-02-18T20:25:12.314Z,100547.31
2023-02-18T20:27:47.991Z,100543.84
2023-02-18T20:30:21.993Z,100548.16
2023-02-18T20:32:48.979Z,100550.75
2023-02-18T20:35:16.018Z,100551.59
2023-02-18T20:37:43.035Z,100552.41
2023-02-18T20:40:10.196Z,100555.81
2023-02-18T20:42:38.821Z,100551.44
2023-02-18T20:45:06.006Z,100560.09
2023-02-18T20:47:33.261Z,100559.25
2023-02-18T20:50:00.236Z,100557.50
2023-02-18T20:52:27.339Z,100560.09
2023-02-18T20:54:54.244Z,100556.66
2023-02-18T20:57:21.219Z,100562.69
2023-02-18T20:59:48.072Z,100557.47
2023-02-18T21:02:15.286Z,100561.84
2023-02-18T21:04:42.691Z,100574.00
2023-02-18T21:07:10.523Z,100571.44
2023-02-18T21:09:37.733Z,100566.28
2023-02-18T21:12:05.117Z,100565.47
2023-02-18T21:14:32.017Z,100568.91
2023-02-18T21:16:58.957Z,100568.03
2023-02-18T21:19:25.896Z,100566.34
2023-02-18T21:21:52.821Z,100576.81
2023-02-18T21:24:19.940Z,100586.28
2023-02-18T21:26:46.816Z,100582.75
2023-02-18T21:29:16.057Z,100582.69
2023-02-18T21:31:43.970Z,100588.75
2023-02-18T21:34:13.893Z,100584.44
2023-02-18T21:36:42.110Z,100582.75
2023-02-18T21:39:10.683Z,100587.88
2023-02-18T21:41:40.919Z,100586.94
2023-02-18T21:44:09.532Z,100587.81
2023-02-18T21:46:37.576Z,100591.31
2023-02-18T21:49:06.225Z,100587.81
2023-02-18T21:51:59.072Z,100582.53
2023-02-18T21:54:44.968Z,100577.16
2023-02-18T21:57:18.316Z,100590.03
2023-02-18T21:59:45.460Z,100588.28
2023-02-18T22:02:18.326Z,100573.59
2023-02-18T22:04:46.241Z,100583.97
2023-02-18T22:07:13.905Z,100586.50
2023-02-18T22:09:40.924Z,100588.09
2023-02-18T22:12:08.810Z,100581.19
2023-02-18T22:14:35.763Z,100588.09
2023-02-18T22:17:02.632Z,100601.00
2023-02-18T22:19:29.597Z,100600.06
2023-02-18T22:21:56.802Z,100604.38
2023-02-18T22:24:24.194Z,100607.84
2023-02-18T22:26:51.243Z,100604.41
2023-02-18T22:29:20.059Z,100601.91
2023-02-18T22:31:47.682Z,100601.91
2023-02-18T22:34:14.937Z,100607.09
2023-02-18T22:36:42.469Z,100608.84
2023-02-18T22:39:11.743Z,100616.56
2023-02-18T22:41:39.255Z,100612.22
2023-02-18T22:44:09.367Z,100616.50
2023-02-18T22:46:37.904Z,100619.94
2023-02-18T22:49:06.556Z,100602.66
2023-02-18T22:51:40.104Z,100600.03
2023-02-18T22:54:13.491Z,100598.22
2023-02-18T22:56:40.452Z,100593.78
2023-02-18T22:59:07.526Z,100602.44
2023-02-18T23:01:38.463Z,100599.06
2023-02-18T23:04:10.288Z,100603.41
2023-02-18T23:06:39.609Z,100595.66
2023-02-18T23:09:08.729Z,100590.53
2023-02-18T23:11:36.167Z,100591.41
2023-02-18T23:14:18.068Z,100588.72
2023-02-18T23:17:07.134Z,100586.00
2023-02-18T23:19:36.047Z,100591.06
2023-02-18T23:22:03.886Z,100590.00
2023-02-18T23:24:36.542Z,100590.81
2023-02-18T23:27:04.758Z,100601.19
2023-02-18T23:29:32.646Z,100605.50
2023-02-18T23:31:59.634Z,100594.25
2023-02-18T23:34:26.906Z,100595.03
2023-02-18T23:36:53.893Z,100593.28
2023-02-18T23:39:22.767Z,100597.59
2023-02-18T23:41:50.406Z,100597.50
2023-02-18T23:44:20.707Z,100594.78
2023-02-18T23:46:47.722Z,100597.31
2023-02-18T23:49:24.172Z,100591.22
2023-02-18T23:51:53.640Z,100592.09
2023-02-18T23:54:21.581Z,100583.44
2023-02-18T23:57:23.331Z,100592.88
